createdAt,value
2024-04-19T00:09:25.855Z,6.14
2024-04-19T00:31:57.880Z,5.69
2024-04-19T00:54:29.935Z,5.32
2024-04-19T01:17:01.926Z,5.09
2024-04-19T01:39:33.935Z,4.96
2024-04-19T02:02:05.954Z,4.95
2024-04-19T02:24:38.147Z,4.78
2024-04-19T02:47:10.156Z,4.89
2024-04-19T03:09:42.027Z,4.85
2024-04-19T03:32:13.956Z,5.06
2024-04-19T03:54:45.853Z,5.09
2024-04-19T04:17:17.877Z,5.20
2024-04-19T04:39:49.938Z,5.40
2024-04-19T05:02:21.996Z,5.72
2024-04-19T05:24:54.003Z,5.91
2024-04-19T05:47:25.946Z,6.30
2024-04-19T06:09:57.976Z,6.84
2024-04-19T06:32:30.133Z,7.40
2024-04-19T06:55:02.252Z,7.91
2024-04-19T07:17:35.724Z,10.36
2024-04-19T07:40:09.718Z,9.87
2024-04-19T08:02:41.705Z,10.74
2024-04-19T08:25:13.619Z,10.29
2024-04-19T08:47:47.208Z,11.92
2024-04-19T09:10:22.883Z,11.29
2024-04-19T09:32:55.384Z,11.19
2024-04-19T09:55:36.604Z,12.03
2024-04-19T10:18:09.029Z,12.26
2024-04-19T10:40:41.579Z,16.21
2024-04-19T11:03:19.875Z,15.37
2024-04-19T11:25:56.833Z,12.29
2024-04-19T11:48:29.625Z,14.51
2024-04-19T12:11:01.960Z,11.54
2024-04-19T12:33:34.306Z,12.34
2024-04-19T12:56:07.210Z,11.63
2024-04-19T13:18:39.395Z,11.76
2024-04-19T13:41:11.435Z,15.25
2024-04-19T14:03:43.756Z,11.90
2024-04-19T14:26:22.764Z,12.59
2024-04-19T14:48:55.556Z,12.38
2024-04-19T15:11:27.656Z,11.84
2024-04-19T15:34:09.874Z,9.86
2024-04-19T15:56:51.966Z,8.80
2024-04-19T16:19:24.803Z,8.19
2024-04-19T16:41:58.190Z,7.60
2024-04-19T17:04:30.589Z,7.30
2024-04-19T17:27:02.702Z,7.55
2024-04-19T17:49:34.754Z,6.90
2024-04-19T18:12:08.083Z,6.88
2024-04-19T18:34:39.946Z,6.32
2024-04-19T18:57:11.793Z,6.17
2024-04-19T19:19:44.354Z,6.49
2024-04-19T19:42:16.798Z,6.67
2024-04-19T20:05:07.268Z,6.60
2024-04-19T20:27:39.281Z,6.30
2024-04-19T20:50:16.921Z,6.20
2024-04-19T21:12:48.784Z,5.90
2024-04-19T21:35:20.874Z,5.53
2024-04-19T21:57:55.343Z,5.20
2024-04-19T22:20:27.402Z,4.76
2024-04-19T22:42:59.349Z,4.56
2024-04-19T23:05:31.277Z,4.84
2024-04-19T23:28:03.326Z,4.95
2024-04-19T23:50:38.525Z,5.18
